DLH030 EDDB-LDSB
Flight info
| Callsign | DLH030 |
|---|---|
| Flight time | 1h 38m |
| Altitude | 36000 |
| Route | EDDB/06L LURO4B LUROS Y211 BEBKU Z36 MAREM DCT PISAM DCT PESAT DCT KOPRY DCT SPL DCT KEMIX KEMI1X LDSB/R03 |
| Aircraft | B736/M-SDE2E3FGHIRWXY/LB1 |
Departure
| Time | 2026-04-30 17:43 |
|---|---|
| Airport | Berlin Brandenburg Airport (EDDB) |
Arrival
| Time | 2026-04-30 19:21 |
|---|---|
| Airport | Brač Airport (LDSB) |
| Time | Latitude | Longitude | Altitude | Speed | Heading |
|---|---|---|---|---|---|
| 2026-04-30 17:42 | 52.47681 | 13.91865 | 14860 ft | 327 kts | 63° |
| 2026-04-30 17:43 | 52.49632 | 13.98631 | 16833 ft | 330 kts | 62° |
| 2026-04-30 17:44 | 52.50895 | 14.08619 | 19039 ft | 364 kts | 95° |
| 2026-04-30 17:44 | 52.44801 | 14.18754 | 21489 ft | 436 kts | 164° |
| 2026-04-30 17:46 | 52.30322 | 14.20046 | 25090 ft | 456 kts | 178° |
| 2026-04-30 17:47 | 52.17571 | 14.18984 | 28087 ft | 459 kts | 178° |
| 2026-04-30 17:48 | 52.04782 | 14.18242 | 30979 ft | 465 kts | 177° |
| 2026-04-30 17:48 | 51.94993 | 14.17691 | 32501 ft | 475 kts | 177° |
| 2026-04-30 17:49 | 51.82145 | 14.12240 | 34637 ft | 488 kts | 202° |
| 2026-04-30 17:50 | 51.69682 | 14.03451 | 36173 ft | 494 kts | 201° |
| 2026-04-30 17:51 | 51.60158 | 13.96944 | 36418 ft | 493 kts | 201° |
| 2026-04-30 17:52 | 51.50700 | 13.90497 | 36430 ft | 492 kts | 201° |
| 2026-04-30 17:53 | 51.34300 | 13.83684 | 36423 ft | 488 kts | 186° |
| 2026-04-30 17:54 | 51.20904 | 13.79944 | 36429 ft | 489 kts | 187° |
| 2026-04-30 17:56 | 50.94130 | 13.72273 | 36431 ft | 490 kts | 186° |
| 2026-04-30 17:58 | 50.74256 | 13.64554 | 36403 ft | 485 kts | 178° |
| 2026-04-30 17:59 | 50.62505 | 13.71728 | 36415 ft | 452 kts | 139° |
| 2026-04-30 18:00 | 50.51944 | 13.82530 | 36413 ft | 453 kts | 140° |
| 2026-04-30 18:01 | 50.38643 | 13.95788 | 36411 ft | 455 kts | 140° |
| 2026-04-30 18:02 | 50.22550 | 14.11696 | 36402 ft | 456 kts | 140° |
| 2026-04-30 18:04 | 50.06417 | 14.27516 | 36401 ft | 456 kts | 140° |
| 2026-04-30 18:06 | 49.84906 | 14.48416 | 36402 ft | 456 kts | 140° |
| 2026-04-30 18:08 | 49.66006 | 14.66597 | 36403 ft | 458 kts | 139° |
| 2026-04-30 18:10 | 49.44089 | 14.87492 | 36416 ft | 483 kts | 140° |
| 2026-04-30 18:11 | 49.32582 | 14.98328 | 36395 ft | 472 kts | 140° |
| 2026-04-30 18:11 | 49.24234 | 15.06175 | 36402 ft | 469 kts | 140° |
| 2026-04-30 18:13 | 49.10349 | 15.19174 | 36435 ft | 470 kts | 141° |
| 2026-04-30 18:14 | 48.96354 | 15.32176 | 36393 ft | 471 kts | 141° |
| 2026-04-30 18:15 | 48.81272 | 15.50255 | 36407 ft | 458 kts | 128° |
| 2026-04-30 18:16 | 48.76673 | 15.57060 | 36402 ft | 469 kts | 128° |
| 2026-04-30 18:16 | 48.71902 | 15.64028 | 36402 ft | 480 kts | 129° |
| 2026-04-30 18:17 | 48.67088 | 15.70975 | 36381 ft | 476 kts | 129° |
| 2026-04-30 18:18 | 48.59865 | 15.81363 | 36411 ft | 479 kts | 130° |
| 2026-04-30 18:18 | 48.55031 | 15.88304 | 36384 ft | 479 kts | 130° |
| 2026-04-30 18:19 | 48.50198 | 15.95221 | 36383 ft | 479 kts | 130° |
| 2026-04-30 18:19 | 48.45366 | 16.02121 | 36381 ft | 479 kts | 130° |
| 2026-04-30 18:20 | 48.40523 | 16.09017 | 36383 ft | 479 kts | 130° |
| 2026-04-30 18:20 | 48.35680 | 16.15896 | 36394 ft | 480 kts | 131° |
| 2026-04-30 18:21 | 48.30814 | 16.22787 | 36393 ft | 481 kts | 131° |
| 2026-04-30 18:21 | 48.25938 | 16.29672 | 36384 ft | 482 kts | 131° |
| 2026-04-30 18:22 | 48.21076 | 16.36519 | 36380 ft | 482 kts | 131° |
| 2026-04-30 18:22 | 48.13709 | 16.46858 | 36391 ft | 483 kts | 131° |
| 2026-04-30 18:23 | 48.08835 | 16.53676 | 36377 ft | 483 kts | 132° |
| 2026-04-30 18:23 | 48.03920 | 16.60532 | 36377 ft | 483 kts | 132° |
| 2026-04-30 18:24 | 47.96541 | 16.70789 | 36373 ft | 483 kts | 132° |
| 2026-04-30 18:25 | 47.91615 | 16.77615 | 36376 ft | 483 kts | 132° |
| 2026-04-30 18:25 | 47.84216 | 16.87832 | 36379 ft | 483 kts | 132° |
| 2026-04-30 18:26 | 47.76813 | 16.98018 | 36364 ft | 483 kts | 133° |
| 2026-04-30 18:27 | 47.67927 | 17.05077 | 36365 ft | 504 kts | 171° |
| 2026-04-30 18:28 | 47.57663 | 17.04598 | 36347 ft | 467 kts | 181° |
| 2026-04-30 18:28 | 47.54478 | 17.04315 | 36347 ft | 449 kts | 181° |
| 2026-04-30 18:28 | 47.48485 | 17.03855 | 36347 ft | 419 kts | 180° |
| 2026-04-30 18:29 | 47.36861 | 17.03128 | 36371 ft | 423 kts | 180° |
| 2026-04-30 18:30 | 47.26048 | 17.02467 | 36365 ft | 425 kts | 180° |
| 2026-04-30 18:31 | 47.17210 | 17.01923 | 36356 ft | 422 kts | 180° |
| 2026-04-30 18:32 | 47.08447 | 17.01386 | 36357 ft | 418 kts | 181° |
| 2026-04-30 18:33 | 46.99757 | 17.00855 | 36363 ft | 416 kts | 181° |
| 2026-04-30 18:33 | 46.91078 | 17.00327 | 36373 ft | 416 kts | 181° |
| 2026-04-30 18:34 | 46.82401 | 16.99801 | 36354 ft | 416 kts | 181° |
| 2026-04-30 18:35 | 46.76608 | 16.99450 | 36350 ft | 416 kts | 181° |
| 2026-04-30 18:35 | 46.70825 | 16.99101 | 36350 ft | 416 kts | 182° |
| 2026-04-30 18:36 | 46.62150 | 16.98579 | 36350 ft | 416 kts | 181° |
| 2026-04-30 18:37 | 46.53469 | 16.98057 | 36370 ft | 416 kts | 181° |
| 2026-04-30 18:37 | 46.47682 | 16.97711 | 36371 ft | 416 kts | 182° |
| 2026-04-30 18:38 | 46.41936 | 16.97368 | 36369 ft | 416 kts | 182° |
| 2026-04-30 18:38 | 46.36155 | 16.97023 | 36368 ft | 416 kts | 182° |
| 2026-04-30 18:39 | 46.30371 | 16.96679 | 36362 ft | 415 kts | 182° |
| 2026-04-30 18:39 | 46.24594 | 16.96332 | 36365 ft | 415 kts | 183° |
| 2026-04-30 18:40 | 46.18879 | 16.95217 | 36373 ft | 415 kts | 191° |
| 2026-04-30 18:40 | 46.15995 | 16.94455 | 36391 ft | 427 kts | 191° |
| 2026-04-30 18:40 | 46.13065 | 16.93664 | 36393 ft | 441 kts | 191° |
| 2026-04-30 18:40 | 46.10002 | 16.92846 | 36374 ft | 454 kts | 191° |
| 2026-04-30 18:41 | 46.06855 | 16.92022 | 36378 ft | 466 kts | 191° |
| 2026-04-30 18:41 | 46.03622 | 16.91191 | 36378 ft | 477 kts | 191° |
| 2026-04-30 18:41 | 46.00325 | 16.90357 | 36376 ft | 487 kts | 191° |
| 2026-04-30 18:42 | 45.93544 | 16.88665 | 36370 ft | 501 kts | 191° |
| 2026-04-30 18:42 | 45.83205 | 16.86104 | 36346 ft | 499 kts | 191° |
| 2026-04-30 18:45 | 45.45764 | 16.76880 | 36324 ft | 476 kts | 191° |
| 2026-04-30 18:45 | 45.42608 | 16.76111 | 36328 ft | 456 kts | 191° |
| 2026-04-30 18:46 | 45.39538 | 16.75364 | 36329 ft | 439 kts | 191° |
| 2026-04-30 18:46 | 45.36586 | 16.74645 | 36324 ft | 423 kts | 191° |
| 2026-04-30 18:46 | 45.33730 | 16.73949 | 36331 ft | 409 kts | 191° |
| 2026-04-30 18:46 | 45.30919 | 16.73263 | 36005 ft | 412 kts | 192° |
| 2026-04-30 18:47 | 45.28048 | 16.72560 | 35691 ft | 429 kts | 191° |
| 2026-04-30 18:47 | 45.25029 | 16.71818 | 35359 ft | 452 kts | 191° |
| 2026-04-30 18:47 | 45.21858 | 16.71042 | 35030 ft | 474 kts | 191° |
| 2026-04-30 18:47 | 45.18537 | 16.70234 | 34704 ft | 493 kts | 191° |
| 2026-04-30 18:48 | 45.15114 | 16.69404 | 34357 ft | 501 kts | 191° |
| 2026-04-30 18:48 | 45.11679 | 16.68576 | 33930 ft | 501 kts | 191° |
| 2026-04-30 18:48 | 45.08259 | 16.67754 | 33518 ft | 498 kts | 191° |
| 2026-04-30 18:48 | 45.04845 | 16.66933 | 33113 ft | 497 kts | 191° |
| 2026-04-30 18:49 | 45.01443 | 16.66115 | 32707 ft | 495 kts | 191° |
| 2026-04-30 18:49 | 44.98046 | 16.65298 | 32344 ft | 493 kts | 191° |
| 2026-04-30 18:49 | 44.94671 | 16.64487 | 31957 ft | 492 kts | 191° |
| 2026-04-30 18:49 | 44.91301 | 16.63677 | 31573 ft | 490 kts | 191° |
| 2026-04-30 18:50 | 44.87943 | 16.62871 | 31188 ft | 489 kts | 191° |
| 2026-04-30 18:50 | 44.84593 | 16.62068 | 30816 ft | 488 kts | 191° |
| 2026-04-30 18:50 | 44.81246 | 16.61266 | 30453 ft | 488 kts | 191° |
| 2026-04-30 18:50 | 44.77897 | 16.60465 | 30021 ft | 488 kts | 191° |
| 2026-04-30 18:51 | 44.74547 | 16.59665 | 29590 ft | 489 kts | 191° |
| 2026-04-30 18:51 | 44.71193 | 16.58864 | 29163 ft | 490 kts | 191° |
| 2026-04-30 18:51 | 44.67829 | 16.58062 | 28745 ft | 492 kts | 191° |
| 2026-04-30 18:51 | 44.64445 | 16.57257 | 28332 ft | 493 kts | 191° |
| 2026-04-30 18:52 | 44.61049 | 16.56449 | 27926 ft | 495 kts | 191° |
| 2026-04-30 18:52 | 44.57692 | 16.55652 | 27529 ft | 496 kts | 191° |
| 2026-04-30 18:52 | 44.54277 | 16.54842 | 27120 ft | 497 kts | 191° |
| 2026-04-30 18:52 | 44.50858 | 16.54032 | 26736 ft | 500 kts | 192° |
| 2026-04-30 18:53 | 44.47414 | 16.53216 | 26345 ft | 504 kts | 191° |
| 2026-04-30 18:53 | 44.43948 | 16.52398 | 25966 ft | 505 kts | 191° |
| 2026-04-30 18:53 | 44.40478 | 16.51581 | 25577 ft | 500 kts | 191° |
| 2026-04-30 18:53 | 44.37125 | 16.50794 | 25179 ft | 476 kts | 192° |
| 2026-04-30 18:54 | 44.33925 | 16.50043 | 24800 ft | 456 kts | 194° |
| 2026-04-30 18:54 | 44.30887 | 16.49029 | 24418 ft | 442 kts | 202° |
| 2026-04-30 18:54 | 44.28097 | 16.47480 | 24045 ft | 433 kts | 206° |
| 2026-04-30 18:54 | 44.25293 | 16.45819 | 23635 ft | 433 kts | 207° |
| 2026-04-30 18:55 | 44.22519 | 16.44161 | 23212 ft | 432 kts | 208° |
| 2026-04-30 18:55 | 44.17007 | 16.40910 | 22378 ft | 427 kts | 205° |
| 2026-04-30 18:55 | 44.14277 | 16.39328 | 21988 ft | 423 kts | 205° |
| 2026-04-30 18:56 | 44.08909 | 16.36245 | 21189 ft | 417 kts | 205° |
| 2026-04-30 18:56 | 44.06228 | 16.34713 | 20805 ft | 415 kts | 205° |
| 2026-04-30 18:56 | 44.03564 | 16.33192 | 20415 ft | 413 kts | 204° |
| 2026-04-30 18:57 | 43.98263 | 16.30170 | 19668 ft | 409 kts | 205° |
| 2026-04-30 18:57 | 43.95635 | 16.28675 | 19291 ft | 407 kts | 205° |
| 2026-04-30 18:57 | 43.93018 | 16.27187 | 18929 ft | 405 kts | 205° |
| 2026-04-30 18:58 | 43.87835 | 16.24242 | 18159 ft | 400 kts | 204° |
| 2026-04-30 18:58 | 43.85262 | 16.22783 | 17758 ft | 398 kts | 204° |
| 2026-04-30 18:58 | 43.82844 | 16.21412 | 17357 ft | 396 kts | 205° |
| 2026-04-30 18:59 | 43.77767 | 16.18540 | 16562 ft | 392 kts | 204° |
| 2026-04-30 19:00 | 43.70257 | 16.14298 | 15422 ft | 387 kts | 204° |
| 2026-04-30 19:00 | 43.67765 | 16.12893 | 15044 ft | 385 kts | 204° |
| 2026-04-30 19:00 | 43.62817 | 16.10108 | 14314 ft | 382 kts | 204° |
| 2026-04-30 19:01 | 43.57915 | 16.07354 | 13524 ft | 379 kts | 204° |
| 2026-04-30 19:01 | 43.55481 | 16.05988 | 13128 ft | 377 kts | 204° |
| 2026-04-30 19:02 | 43.50658 | 16.03285 | 12343 ft | 372 kts | 203° |
| 2026-04-30 19:02 | 43.45877 | 16.00611 | 11563 ft | 369 kts | 204° |
| 2026-04-30 19:03 | 43.41134 | 15.97961 | 10818 ft | 366 kts | 203° |
| 2026-04-30 19:03 | 43.36417 | 15.95414 | 10078 ft | 363 kts | 196° |
| 2026-04-30 19:04 | 43.31545 | 15.96274 | 9270 ft | 359 kts | 149° |
| 2026-04-30 19:04 | 43.28276 | 16.01157 | 8519 ft | 346 kts | 113° |
| 2026-04-30 19:05 | 43.26346 | 16.07123 | 7762 ft | 339 kts | 111° |
| 2026-04-30 19:05 | 43.24552 | 16.12805 | 7483 ft | 307 kts | 112° |
| 2026-04-30 19:06 | 43.22919 | 16.17901 | 7237 ft | 280 kts | 110° |
| 2026-04-30 19:06 | 43.22136 | 16.20339 | 7123 ft | 279 kts | 109° |
| 2026-04-30 19:06 | 43.21685 | 16.25312 | 6920 ft | 265 kts | 73° |
| 2026-04-30 19:07 | 43.22588 | 16.30213 | 6705 ft | 265 kts | 71° |
| 2026-04-30 19:07 | 43.23027 | 16.32700 | 6589 ft | 265 kts | 74° |
| 2026-04-30 19:08 | 43.23864 | 16.37648 | 6365 ft | 269 kts | 76° |
| 2026-04-30 19:08 | 43.24661 | 16.42523 | 6146 ft | 248 kts | 75° |
| 2026-04-30 19:08 | 43.25015 | 16.44712 | 6038 ft | 228 kts | 74° |
| 2026-04-30 19:09 | 43.25660 | 16.48715 | 5808 ft | 206 kts | 76° |
| 2026-04-30 19:09 | 43.25970 | 16.50633 | 5702 ft | 207 kts | 76° |
| 2026-04-30 19:09 | 43.26279 | 16.52550 | 5595 ft | 208 kts | 76° |
| 2026-04-30 19:10 | 43.26895 | 16.56393 | 5352 ft | 204 kts | 76° |
| 2026-04-30 19:10 | 43.27475 | 16.60209 | 5115 ft | 206 kts | 83° |
| 2026-04-30 19:11 | 43.27140 | 16.62091 | 4969 ft | 208 kts | 119° |
| 2026-04-30 19:11 | 43.24555 | 16.63636 | 4758 ft | 223 kts | 189° |
| 2026-04-30 19:11 | 43.23149 | 16.62679 | 4667 ft | 230 kts | 210° |
| 2026-04-30 19:12 | 43.21810 | 16.61502 | 4549 ft | 225 kts | 211° |
| 2026-04-30 19:12 | 43.20531 | 16.60228 | 4428 ft | 229 kts | 216° |
| 2026-04-30 19:12 | 43.19265 | 16.58971 | 4326 ft | 220 kts | 214° |
| 2026-04-30 19:13 | 43.16792 | 16.56638 | 4077 ft | 219 kts | 213° |
| 2026-04-30 19:13 | 43.14157 | 16.54597 | 3981 ft | 216 kts | 187° |
| 2026-04-30 19:13 | 43.12679 | 16.54623 | 3993 ft | 212 kts | 166° |
| 2026-04-30 19:14 | 43.11317 | 16.55280 | 3991 ft | 202 kts | 155° |
| 2026-04-30 19:14 | 43.10276 | 16.56323 | 3972 ft | 172 kts | 118° |
| 2026-04-30 19:14 | 43.09900 | 16.57725 | 3972 ft | 146 kts | 99° |
| 2026-04-30 19:14 | 43.09804 | 16.59064 | 3987 ft | 141 kts | 88° |
| 2026-04-30 19:15 | 43.09938 | 16.60383 | 3980 ft | 137 kts | 74° |
| 2026-04-30 19:15 | 43.10714 | 16.62742 | 3999 ft | 137 kts | 55° |
| 2026-04-30 19:15 | 43.11507 | 16.63399 | 3986 ft | 139 kts | 1° |
| 2026-04-30 19:16 | 43.12477 | 16.63159 | 4040 ft | 145 kts | 354° |
| 2026-04-30 19:16 | 43.13487 | 16.63020 | 4002 ft | 147 kts | 1° |
| 2026-04-30 19:16 | 43.15494 | 16.63124 | 3991 ft | 142 kts | 12° |
| 2026-04-30 19:17 | 43.16450 | 16.63345 | 3997 ft | 138 kts | 17° |
| 2026-04-30 19:17 | 43.18369 | 16.63703 | 4060 ft | 136 kts | 359° |
| 2026-04-30 19:17 | 43.19296 | 16.63495 | 4052 ft | 134 kts | 353° |
| 2026-04-30 19:18 | 43.20491 | 16.63101 | 4098 ft | 131 kts | 348° |
| 2026-04-30 19:18 | 43.21672 | 16.62653 | 3999 ft | 131 kts | 358° |
| 2026-04-30 19:18 | 43.22535 | 16.62657 | 3896 ft | 120 kts | 15° |
| 2026-04-30 19:19 | 43.23339 | 16.63015 | 3661 ft | 124 kts | 28° |
| 2026-04-30 19:19 | 43.24098 | 16.63582 | 3461 ft | 124 kts | 37° |
| 2026-04-30 19:19 | 43.25441 | 16.64931 | 3059 ft | 114 kts | 38° |
| 2026-04-30 19:20 | 43.26070 | 16.65539 | 2745 ft | 108 kts | 38° |
| 2026-04-30 19:20 | 43.26686 | 16.66140 | 2374 ft | 109 kts | 40° |
| 2026-04-30 19:20 | 43.27881 | 16.67303 | 1902 ft | 99 kts | 38° |
| 2026-04-30 19:21 | 43.28385 | 16.67796 | 1745 ft | 77 kts | 35° |
| 2026-04-30 19:21 | 43.28689 | 16.68069 | 1742 ft | 0 kts | 355° |
| 2026-04-30 19:22 | 43.28758 | 16.67978 | 1745 ft | 7 kts | 295° |
| 2026-04-30 19:23 | 43.28801 | 16.67949 | 1748 ft | 0 kts | 25° |
| 2026-04-30 19:24 | 43.28788 | 16.67992 | 1743 ft | 5 kts | 156° |
| 2026-04-30 19:24 | 43.28763 | 16.67960 | 1745 ft | 7 kts | 253° |
| 2026-04-30 19:24 | 43.28787 | 16.67993 | 1743 ft | 0 kts | 149° |
| 2026-04-30 19:25 | 43.28828 | 16.67945 | 1745 ft | 0 kts | 137° |